Other Surface Observations
Issued by NWS Great Falls, MT

Home | Current Version | Previous Version | Text Only | Print | Product List | Glossary On
Versions: 1 2 3 4 5 6 7 8 9 10 11 12 13 14 15 16 17 18 19 20 21 22 23 24 25 26 27 28 29 30 31 32 33 34 35 36 37 38 39 40 41 42 43 44 45 46 47 48 49 50
000
SXUS55 KTFX 270508
OSOTFX
AREA AWOS OBSERVATIONS
NATIONAL WEATHER SERVICE GREAT FALLS MT
1005 PM MST THU FEB 26 2015

METAR KPWD 270500Z AUTO 11006KT 10SM M20/M24 A3038 RMK PLENTYWOOD
METAR KPO1 270500Z AUTO 11006KT M16/M19 A3042 RMK POPLAR
METAR K1S3 270500Z AUTO 16005KT 10SM M16/M20 A3032 RMK FORSYTH
METAR KS71 270500Z AUTO 09010KT 10SM M16/M19 A3022 RMK CHINOOK
METAR K6S0 270500Z AUTO 08005KT 10SM M14/M17 A3011 RMK BIG TIMBER
METAR K79S 270500Z AUTO 08008KT 10SM M12/M17 A3015 RMK FORT BENTON
METAR K38S 270500Z AUTO 00000KT 10SM M15/M16 A3001 RMK DEER LODGE
METAR K3U3 270500Z AUTO 20006KT M11/M14 A2996 RMK ANACONDA
METAR K6S5 270500Z AUTO 14004KT 10SM M04/M08 A2994 RMK HAMILTON
METAR KS59 270500Z AUTO 00000KT 10SM M01/M06 A2995 RMK LIBBY
METAR K88M 270500Z AUTO 14010KT 10SM 01/M09 A2997 RMK EUREKA



USA.gov is the U.S. government's official web portal to all federal, state and local government web resources and services.